createdAt,value
2017-09-15T00:00:46.698Z,11.10
2017-09-15T00:03:14.620Z,11.10
2017-09-15T00:05:42.175Z,11.00
2017-09-15T00:08:10.101Z,11.00
2017-09-15T00:10:37.639Z,11.00
2017-09-15T00:13:05.176Z,11.00
2017-09-15T00:15:32.705Z,11.00
2017-09-15T00:18:00.269Z,10.90
2017-09-15T00:20:27.792Z,10.90
2017-09-15T00:22:56.159Z,10.90
2017-09-15T00:25:24.923Z,10.80
2017-09-15T00:27:52.467Z,10.90
2017-09-15T00:30:20.314Z,10.80
2017-09-15T00:32:48.392Z,10.80
2017-09-15T00:35:16.679Z,10.80
2017-09-15T00:37:44.228Z,10.80
2017-09-15T00:40:11.768Z,10.70
2017-09-15T00:42:39.695Z,10.60
2017-09-15T00:45:07.236Z,10.70
2017-09-15T00:47:34.763Z,10.60
2017-09-15T00:50:02.352Z,10.60
2017-09-15T00:52:29.885Z,10.50
2017-09-15T00:54:57.800Z,10.50
2017-09-15T00:57:25.508Z,10.50
2017-09-15T00:59:53.040Z,10.50
2017-09-15T01:02:20.585Z,10.50
2017-09-15T01:04:48.120Z,10.50
2017-09-15T01:07:16.699Z,10.40
2017-09-15T01:09:44.218Z,10.40
2017-09-15T01:12:11.736Z,10.40
2017-09-15T01:14:39.320Z,10.40
2017-09-15T01:17:06.842Z,10.40
2017-09-15T01:19:34.403Z,10.40
2017-09-15T01:22:01.929Z,10.50
2017-09-15T01:24:29.475Z,10.50
2017-09-15T01:26:57.402Z,10.50
2017-09-15T01:29:25.674Z,10.50
2017-09-15T01:31:53.859Z,10.50
2017-09-15T01:34:21.386Z,10.50
2017-09-15T01:36:48.931Z,10.50
2017-09-15T01:39:17.861Z,10.50
2017-09-15T01:41:45.412Z,10.50
2017-09-15T01:44:13.335Z,10.50
2017-09-15T01:46:40.878Z,10.50
2017-09-15T01:49:08.446Z,10.40
2017-09-15T01:51:35.972Z,10.40
2017-09-15T01:54:03.509Z,10.40
2017-09-15T01:56:31.038Z,10.50
2017-09-15T01:58:58.967Z,10.50
2017-09-15T02:01:26.494Z,10.50
2017-09-15T02:03:54.639Z,10.40
2017-09-15T02:06:22.194Z,10.40
2017-09-15T02:08:49.712Z,10.40
2017-09-15T02:11:17.998Z,10.40
2017-09-15T02:13:47.444Z,10.30
2017-09-15T02:16:14.980Z,10.30
2017-09-15T02:18:43.431Z,10.30
2017-09-15T02:21:11.360Z,10.20
2017-09-15T02:23:38.911Z,10.30
2017-09-15T02:26:06.451Z,10.20
2017-09-15T02:28:33.989Z,10.20
2017-09-15T02:31:01.512Z,10.20
2017-09-15T02:33:29.065Z,10.20
2017-09-15T02:35:56.587Z,10.20
2017-09-15T02:38:24.120Z,10.10
2017-09-15T02:40:52.065Z,10.10
2017-09-15T02:43:19.607Z,10.20
2017-09-15T02:45:47.154Z,10.10
2017-09-15T02:48:14.678Z,10.10
2017-09-15T02:50:42.217Z,10.10
2017-09-15T02:53:10.148Z,10.00
2017-09-15T02:55:38.063Z,10.00
2017-09-15T02:58:05.591Z,10.00
2017-09-15T03:00:33.116Z,9.90
2017-09-15T03:03:01.052Z,9.90
2017-09-15T03:05:28.564Z,9.90
2017-09-15T03:07:56.105Z,9.90
2017-09-15T03:10:24.904Z,9.90
2017-09-15T03:12:52.428Z,9.90
2017-09-15T03:15:20.305Z,9.90
2017-09-15T03:17:48.207Z,9.90
2017-09-15T03:20:17.164Z,9.90
2017-09-15T03:22:44.687Z,9.90
2017-09-15T03:25:12.252Z,9.90
2017-09-15T03:27:39.769Z,9.90
2017-09-15T03:30:07.307Z,9.90
2017-09-15T03:32:34.856Z,9.80
2017-09-15T03:35:02.389Z,9.80
2017-09-15T03:37:29.975Z,9.80
2017-09-15T03:39:57.495Z,9.80
2017-09-15T03:42:26.012Z,9.80
2017-09-15T03:44:53.946Z,9.80
2017-09-15T03:47:21.876Z,9.90
2017-09-15T03:49:49.395Z,9.90
2017-09-15T03:52:17.480Z,9.90
2017-09-15T03:54:45.007Z,9.80
2017-09-15T03:57:12.529Z,9.90
2017-09-15T03:59:40.059Z,9.80
2017-09-15T04:02:07.979Z,9.80
2017-09-15T04:04:35.947Z,9.80
2017-09-15T04:07:03.483Z,9.90
2017-09-15T04:09:31.096Z,9.80
2017-09-15T04:11:59.021Z,9.90
2017-09-15T04:14:26.927Z,9.90
2017-09-15T04:16:55.564Z,9.90
2017-09-15T04:19:23.079Z,9.90
2017-09-15T04:21:50.604Z,9.90
2017-09-15T04:24:18.161Z,9.90
2017-09-15T04:26:46.235Z,9.90
2017-09-15T04:29:13.764Z,9.90
2017-09-15T04:31:41.278Z,9.80
2017-09-15T04:34:08.808Z,9.90
2017-09-15T04:36:36.324Z,9.90
2017-09-15T04:39:03.866Z,9.90
2017-09-15T04:41:31.388Z,9.90
2017-09-15T04:43:58.905Z,9.90
2017-09-15T04:46:26.454Z,9.90
2017-09-15T04:48:54.516Z,9.90
2017-09-15T04:51:22.055Z,9.90
2017-09-15T04:53:49.590Z,9.90
2017-09-15T04:56:17.556Z,9.90
2017-09-15T04:58:45.830Z,9.90
2017-09-15T05:01:13.349Z,9.90
2017-09-15T05:03:40.887Z,9.90
2017-09-15T05:06:08.825Z,9.90
2017-09-15T05:08:36.393Z,9.90
2017-09-15T05:11:03.931Z,9.90
2017-09-15T05:13:31.494Z,9.90
2017-09-15T05:15:59.025Z,10.00
2017-09-15T05:18:26.550Z,10.00
2017-09-15T05:20:54.951Z,10.00
2017-09-15T05:23:22.487Z,10.00
2017-09-15T05:25:50.032Z,10.00
2017-09-15T05:28:17.555Z,10.00
2017-09-15T05:30:46.336Z,10.00
2017-09-15T05:33:13.868Z,10.00
2017-09-15T05:35:41.395Z,10.00
2017-09-15T05:38:08.931Z,10.10
2017-09-15T05:40:36.477Z,10.10
2017-09-15T05:43:04.424Z,10.10
2017-09-15T05:45:31.961Z,10.10
2017-09-15T05:47:59.932Z,10.10
2017-09-15T05:50:27.454Z,10.10
2017-09-15T05:52:56.103Z,10.10
2017-09-15T05:55:24.043Z,10.10
2017-09-15T05:57:51.976Z,10.10
2017-09-15T06:00:19.515Z,10.10
2017-09-15T06:02:47.915Z,10.10
2017-09-15T06:05:16.519Z,10.20
2017-09-15T06:07:44.045Z,10.20
2017-09-15T06:10:11.964Z,10.30
2017-09-15T06:12:39.498Z,10.30
2017-09-15T06:15:07.019Z,10.30
2017-09-15T06:17:34.952Z,10.40
2017-09-15T06:20:02.475Z,10.40
2017-09-15T06:22:30.027Z,10.40
2017-09-15T06:24:57.555Z,10.40
2017-09-15T06:27:25.864Z,10.40
2017-09-15T06:29:54.504Z,10.50
2017-09-15T06:32:22.024Z,10.50
2017-09-15T06:34:49.565Z,10.50
2017-09-15T06:37:18.411Z,10.50
2017-09-15T06:39:47.177Z,10.60
2017-09-15T06:42:14.700Z,10.60
2017-09-15T06:44:42.651Z,10.70
2017-09-15T06:47:10.184Z,10.70
2017-09-15T06:49:37.715Z,10.70
2017-09-15T06:52:05.260Z,10.70
2017-09-15T06:54:32.786Z,10.70
2017-09-15T06:57:00.323Z,10.70
2017-09-15T06:59:28.266Z,10.80
2017-09-15T07:01:56.287Z,10.80
2017-09-15T07:04:24.411Z,10.80
2017-09-15T07:06:52.703Z,10.80
2017-09-15T07:09:20.628Z,10.80
2017-09-15T07:11:48.152Z,10.80
2017-09-15T07:14:16.719Z,10.90
2017-09-15T07:16:44.252Z,10.90
2017-09-15T07:19:11.794Z,10.90
2017-09-15T07:21:39.325Z,11.00
2017-09-15T07:24:06.881Z,11.00
2017-09-15T07:26:34.420Z,11.00
2017-09-15T07:29:01.984Z,11.00
2017-09-15T07:31:29.507Z,11.10
2017-09-15T07:33:57.044Z,11.10
2017-09-15T07:36:24.595Z,11.10
2017-09-15T07:38:52.498Z,11.20
2017-09-15T07:41:20.436Z,11.20
2017-09-15T07:43:47.959Z,11.20
2017-09-15T07:46:15.548Z,11.20
2017-09-15T07:48:43.075Z,11.30
2017-09-15T07:51:10.619Z,11.30
2017-09-15T07:53:38.152Z,11.20
2017-09-15T07:56:05.674Z,11.30
2017-09-15T07:58:33.223Z,11.30
2017-09-15T08:01:00.748Z,11.30
2017-09-15T08:03:28.323Z,11.30
2017-09-15T08:05:56.752Z,11.40
2017-09-15T08:08:25.532Z,11.40
2017-09-15T08:10:53.086Z,11.30
2017-09-15T08:13:20.687Z,11.40
2017-09-15T08:15:48.236Z,11.40
2017-09-15T08:18:17.004Z,11.40
2017-09-15T08:20:44.550Z,11.50
2017-09-15T08:23:12.084Z,11.50
2017-09-15T08:25:39.644Z,11.50
2017-09-15T08:28:07.175Z,11.50
2017-09-15T08:30:34.720Z,11.60
2017-09-15T08:33:02.260Z,11.60
2017-09-15T08:35:29.786Z,11.50
2017-09-15T08:37:57.480Z,11.50
2017-09-15T08:40:26.265Z,11.50
2017-09-15T08:42:54.221Z,11.50
2017-09-15T08:45:22.155Z,11.50
2017-09-15T08:47:49.684Z,11.50
2017-09-15T08:50:18.027Z,11.50
2017-09-15T08:52:46.755Z,11.50
2017-09-15T08:55:14.696Z,11.50
2017-09-15T08:57:42.216Z,11.50
2017-09-15T09:00:09.764Z,11.50
2017-09-15T09:02:37.287Z,11.50
2017-09-15T09:05:04.829Z,11.60
2017-09-15T09:07:32.340Z,11.60
2017-09-15T09:09:59.863Z,11.70
2017-09-15T09:12:27.401Z,11.70
2017-09-15T09:14:55.695Z,11.80
2017-09-15T09:17:23.247Z,11.90
2017-09-15T09:19:51.163Z,12.60
2017-09-15T09:22:18.702Z,12.60
2017-09-15T09:24:46.222Z,12.70
2017-09-15T09:27:13.754Z,12.80
2017-09-15T09:29:41.296Z,12.80
2017-09-15T09:32:08.812Z,12.80
2017-09-15T09:34:36.355Z,12.70
2017-09-15T09:37:04.271Z,12.50
2017-09-15T09:39:31.833Z,12.50
2017-09-15T09:41:59.367Z,12.50
2017-09-15T09:44:26.891Z,12.50
2017-09-15T09:46:55.331Z,12.60
2017-09-15T09:49:22.852Z,12.60
2017-09-15T09:51:50.408Z,12.70
2017-09-15T09:54:17.952Z,12.80
2017-09-15T09:56:46.544Z,12.90
2017-09-15T09:59:14.091Z,13.10
2017-09-15T10:01:41.615Z,13.50
2017-09-15T10:04:09.188Z,13.80
2017-09-15T10:06:36.712Z,13.80
2017-09-15T10:09:04.274Z,13.80
2017-09-15T10:11:32.258Z,13.80
2017-09-15T10:13:59.795Z,13.80
2017-09-15T10:16:27.348Z,13.80
2017-09-15T10:18:55.811Z,13.70
2017-09-15T10:21:24.174Z,13.60
2017-09-15T10:23:51.700Z,13.50
2017-09-15T10:26:19.231Z,13.50
2017-09-15T10:28:47.821Z,13.40
2017-09-15T10:31:16.428Z,13.10
2017-09-15T10:33:43.967Z,13.20
2017-09-15T10:36:11.486Z,13.00
2017-09-15T10:38:39.026Z,12.90
2017-09-15T10:41:06.587Z,12.90
2017-09-15T10:43:34.138Z,12.80
2017-09-15T10:46:01.677Z,12.50
2017-09-15T10:48:29.231Z,12.30
2017-09-15T10:50:57.120Z,12.10
2017-09-15T10:53:24.715Z,11.90
2017-09-15T10:55:52.271Z,11.70
2017-09-15T10:58:25.485Z,11.60
2017-09-15T11:00:53.094Z,11.50
2017-09-15T11:03:20.699Z,11.40
2017-09-15T11:05:48.641Z,11.30
2017-09-15T11:08:16.167Z,11.30
2017-09-15T11:10:43.703Z,11.30
2017-09-15T11:13:11.209Z,11.30
2017-09-15T11:15:38.752Z,11.30
2017-09-15T11:18:06.315Z,11.30
2017-09-15T11:20:33.848Z,11.40
2017-09-15T11:23:02.266Z,11.40
2017-09-15T11:25:29.875Z,11.50
2017-09-15T11:27:57.444Z,11.60
2017-09-15T11:30:25.045Z,11.60
2017-09-15T11:32:52.665Z,11.70
2017-09-15T11:35:20.253Z,11.80
2017-09-15T11:37:47.843Z,11.90
2017-09-15T11:40:15.452Z,11.90
2017-09-15T11:42:43.075Z,12.00
2017-09-15T11:45:10.615Z,12.00
2017-09-15T11:47:39.035Z,12.10
2017-09-15T11:50:06.597Z,12.20
2017-09-15T11:52:34.592Z,12.40
2017-09-15T11:55:02.216Z,12.40
2017-09-15T11:57:29.791Z,12.60
2017-09-15T11:59:57.367Z,12.70
2017-09-15T12:02:24.929Z,12.90
2017-09-15T12:04:52.937Z,13.10
2017-09-15T12:07:20.574Z,13.20
2017-09-15T12:09:49.066Z,13.20
2017-09-15T12:12:16.610Z,13.30
2017-09-15T12:14:44.136Z,13.40
2017-09-15T12:17:11.727Z,13.40
2017-09-15T12:19:39.254Z,13.50
2017-09-15T12:22:06.795Z,13.50
2017-09-15T12:24:34.361Z,13.50
2017-09-15T12:27:02.298Z,13.10
2017-09-15T12:29:29.827Z,13.10
2017-09-15T12:31:57.406Z,12.90
2017-09-15T12:34:25.603Z,12.80
2017-09-15T12:36:54.065Z,12.80
2017-09-15T12:39:21.696Z,12.90
2017-09-15T12:41:49.351Z,13.00
2017-09-15T12:44:17.003Z,13.00
2017-09-15T12:46:44.635Z,13.00
2017-09-15T12:49:12.216Z,13.10
2017-09-15T12:51:39.771Z,13.10
2017-09-15T12:54:07.335Z,13.20
2017-09-15T12:56:34.896Z,13.40
2017-09-15T12:59:02.443Z,13.30
2017-09-15T13:01:30.017Z,13.30
2017-09-15T13:03:57.595Z,13.20
2017-09-15T13:06:25.192Z,13.20
2017-09-15T13:08:53.115Z,13.20
2017-09-15T13:11:21.639Z,13.20
2017-09-15T13:13:49.183Z,13.20
2017-09-15T13:16:16.738Z,13.10
2017-09-15T13:18:46.215Z,12.90
2017-09-15T13:21:13.763Z,12.80
2017-09-15T13:23:41.348Z,12.80
2017-09-15T13:26:08.900Z,12.70
2017-09-15T13:28:36.459Z,12.60
2017-09-15T13:31:04.399Z,12.50
2017-09-15T13:33:32.054Z,12.50
2017-09-15T13:35:59.570Z,12.40
2017-09-15T13:38:27.113Z,12.40
2017-09-15T13:40:54.696Z,12.40
2017-09-15T13:43:22.619Z,12.60
2017-09-15T13:45:50.178Z,12.60
2017-09-15T13:48:18.148Z,13.10
2017-09-15T13:50:45.774Z,13.10
2017-09-15T13:53:13.337Z,13.30
2017-09-15T13:55:41.279Z,13.60
2017-09-15T13:58:09.215Z,13.70
2017-09-15T14:00:36.735Z,13.60
2017-09-15T14:03:04.265Z,13.60
2017-09-15T14:05:31.788Z,13.60
2017-09-15T14:07:59.317Z,13.60
2017-09-15T14:10:26.839Z,13.60
2017-09-15T14:12:54.393Z,13.60
2017-09-15T14:15:21.904Z,13.60
2017-09-15T14:17:49.453Z,13.50
2017-09-15T14:20:17.057Z,13.50
2017-09-15T14:22:44.569Z,13.50
2017-09-15T14:25:12.101Z,13.50
2017-09-15T14:27:39.610Z,13.60
2017-09-15T14:30:07.134Z,13.50
2017-09-15T14:32:34.657Z,13.40
2017-09-15T14:35:02.579Z,13.30
2017-09-15T14:37:30.086Z,13.30
2017-09-15T14:39:57.631Z,13.30
2017-09-15T14:42:25.138Z,13.20
2017-09-15T14:44:53.053Z,13.20
2017-09-15T14:47:20.618Z,13.20
2017-09-15T14:49:48.131Z,13.20
2017-09-15T14:52:15.673Z,13.20
2017-09-15T14:54:43.210Z,13.30
2017-09-15T14:57:10.976Z,13.30
2017-09-15T14:59:38.503Z,13.40
2017-09-15T15:02:06.185Z,13.50
2017-09-15T15:04:33.697Z,13.50
2017-09-15T15:07:01.339Z,13.50
2017-09-15T15:09:28.862Z,13.40
2017-09-15T15:11:56.545Z,13.40
2017-09-15T15:14:24.106Z,13.40
2017-09-15T15:16:51.626Z,13.40
2017-09-15T15:19:19.162Z,13.30
2017-09-15T15:21:46.718Z,13.30
2017-09-15T15:24:14.303Z,13.20
2017-09-15T15:26:41.871Z,13.20
2017-09-15T15:29:09.465Z,13.30
2017-09-15T15:31:37.046Z,13.30
2017-09-15T15:34:04.610Z,13.30
2017-09-15T15:36:32.152Z,13.30
2017-09-15T15:39:00.556Z,13.30
2017-09-15T15:41:28.157Z,13.20
2017-09-15T15:43:55.675Z,13.20
2017-09-15T15:46:23.373Z,13.20
2017-09-15T15:48:50.902Z,13.10
2017-09-15T15:51:19.266Z,13.10
2017-09-15T15:53:46.882Z,13.10
2017-09-15T15:56:14.469Z,13.00
2017-09-15T15:58:42.069Z,13.00
2017-09-15T16:01:09.990Z,12.80
2017-09-15T16:03:37.549Z,12.80
2017-09-15T16:06:05.143Z,12.80
2017-09-15T16:08:32.753Z,12.80
2017-09-15T16:11:00.703Z,12.80
2017-09-15T16:13:28.269Z,12.80
2017-09-15T16:15:55.843Z,12.80
2017-09-15T16:18:23.415Z,12.80
2017-09-15T16:20:50.968Z,12.70
2017-09-15T16:23:18.550Z,12.70
2017-09-15T16:25:46.128Z,12.60
2017-09-15T16:28:13.712Z,12.60
2017-09-15T16:30:41.720Z,12.50
2017-09-15T16:33:09.256Z,12.50
2017-09-15T16:35:36.841Z,12.40
2017-09-15T16:38:10.020Z,12.30
2017-09-15T16:40:43.253Z,12.30
2017-09-15T16:43:16.442Z,12.30
2017-09-15T16:45:49.663Z,12.20
2017-09-15T16:48:22.975Z,12.20
2017-09-15T16:50:50.586Z,12.10
2017-09-15T16:53:18.159Z,12.00
2017-09-15T16:55:45.715Z,12.00
2017-09-15T16:58:13.283Z,12.00
2017-09-15T17:00:40.800Z,11.90
2017-09-15T17:03:08.327Z,11.90
2017-09-15T17:05:35.859Z,11.90
2017-09-15T17:08:03.782Z,11.80
2017-09-15T17:10:31.316Z,11.80
2017-09-15T17:12:58.846Z,11.80
2017-09-15T17:15:26.405Z,11.80
2017-09-15T17:17:53.958Z,11.70
2017-09-15T17:20:21.462Z,11.70
2017-09-15T17:22:56.448Z,11.60
2017-09-15T17:25:25.048Z,11.60
2017-09-15T17:27:52.583Z,11.60
2017-09-15T17:30:38.926Z,11.50
2017-09-15T17:33:06.481Z,11.50
2017-09-15T17:35:33.995Z,11.40
2017-09-15T17:38:01.508Z,11.30
2017-09-15T17:40:29.976Z,11.30
2017-09-15T17:42:57.494Z,11.30
2017-09-15T17:45:26.289Z,11.10
2017-09-15T17:47:54.876Z,11.10
2017-09-15T17:50:22.415Z,11.00
2017-09-15T17:52:49.943Z,11.00
2017-09-15T17:55:17.500Z,10.90
2017-09-15T17:57:45.031Z,10.90
2017-09-15T18:00:12.923Z,10.80
2017-09-15T18:02:40.451Z,10.80
2017-09-15T18:05:07.972Z,10.80
2017-09-15T18:07:40.448Z,10.70
2017-09-15T18:10:07.970Z,10.70
2017-09-15T18:12:35.553Z,10.70
2017-09-15T18:15:03.060Z,10.60
2017-09-15T18:17:30.807Z,10.60
2017-09-15T18:19:58.365Z,10.60
2017-09-15T18:22:26.397Z,10.50
2017-09-15T18:24:54.334Z,10.40
2017-09-15T18:27:21.835Z,10.50
2017-09-15T18:29:49.350Z,10.40
2017-09-15T18:32:16.850Z,10.40
2017-09-15T18:34:44.386Z,10.30
2017-09-15T18:37:11.895Z,10.20
2017-09-15T18:39:39.450Z,10.10
2017-09-15T18:42:06.973Z,10.10
2017-09-15T18:44:34.496Z,10.00
2017-09-15T18:47:02.401Z,9.90
2017-09-15T18:49:29.930Z,10.00
2017-09-15T18:51:57.454Z,9.90
2017-09-15T18:54:24.965Z,9.90
2017-09-15T18:56:52.479Z,9.90
2017-09-15T18:59:19.982Z,9.90
2017-09-15T19:01:47.526Z,10.00
2017-09-15T19:04:15.031Z,10.00
2017-09-15T19:06:42.526Z,10.00
2017-09-15T19:09:10.051Z,10.00
2017-09-15T19:11:37.966Z,10.00
2017-09-15T19:14:05.483Z,10.00
2017-09-15T19:16:32.987Z,10.00
2017-09-15T19:19:00.898Z,10.00
2017-09-15T19:21:28.413Z,10.00
2017-09-15T19:23:55.961Z,10.00
2017-09-15T19:26:23.465Z,10.00
2017-09-15T19:28:51.358Z,10.00
2017-09-15T19:31:18.882Z,10.00
2017-09-15T19:33:46.388Z,10.00
2017-09-15T19:36:13.918Z,10.00
2017-09-15T19:38:41.422Z,9.90
2017-09-15T19:41:08.949Z,9.90
2017-09-15T19:43:36.466Z,9.90
2017-09-15T19:46:03.979Z,9.90
2017-09-15T19:48:31.477Z,9.80
2017-09-15T19:50:59.021Z,9.80
2017-09-15T19:53:26.520Z,9.80
2017-09-15T19:55:54.043Z,9.80
2017-09-15T19:58:21.555Z,9.70
2017-09-15T20:00:49.062Z,9.70
2017-09-15T20:03:16.608Z,9.60
2017-09-15T20:05:44.106Z,9.60
2017-09-15T20:08:11.650Z,9.50
2017-09-15T20:10:39.150Z,9.40
2017-09-15T20:13:07.072Z,9.40
2017-09-15T20:15:34.565Z,9.40
2017-09-15T20:18:02.067Z,9.30
2017-09-15T20:20:29.590Z,9.30
2017-09-15T20:22:57.078Z,9.30
2017-09-15T20:25:25.599Z,9.20
2017-09-15T20:27:53.093Z,9.20
2017-09-15T20:30:21.009Z,9.10
2017-09-15T20:32:48.539Z,9.10
2017-09-15T20:35:16.099Z,9.00
2017-09-15T20:37:44.025Z,9.00
2017-09-15T20:40:11.526Z,9.00
2017-09-15T20:42:39.071Z,8.90
2017-09-15T20:45:06.973Z,8.80
2017-09-15T20:47:34.554Z,8.80
2017-09-15T20:50:02.067Z,8.80
2017-09-15T20:52:29.613Z,8.70
2017-09-15T20:54:57.105Z,8.70
2017-09-15T20:57:25.606Z,8.70
2017-09-15T20:59:53.164Z,8.70
2017-09-15T21:02:20.663Z,8.60
2017-09-15T21:04:48.566Z,8.60
2017-09-15T21:07:16.066Z,8.60
2017-09-15T21:09:43.611Z,8.50
2017-09-15T21:12:11.135Z,8.50
2017-09-15T21:14:39.013Z,8.30
2017-09-15T21:17:06.567Z,8.40
2017-09-15T21:19:34.067Z,8.40
2017-09-15T21:22:01.598Z,8.30
2017-09-15T21:24:29.093Z,8.30
2017-09-15T21:26:56.639Z,8.30
2017-09-15T21:29:24.168Z,8.20
2017-09-15T21:31:51.670Z,8.20
2017-09-15T21:34:19.187Z,8.20
2017-09-15T21:36:46.682Z,8.20
2017-09-15T21:39:14.586Z,8.10
2017-09-15T21:41:42.074Z,8.10
2017-09-15T21:44:10.019Z,8.00
2017-09-15T21:46:37.910Z,8.00
2017-09-15T21:49:05.451Z,8.00
2017-09-15T21:51:32.997Z,7.90
2017-09-15T21:54:00.510Z,7.90
2017-09-15T21:56:28.491Z,7.90
2017-09-15T21:58:56.079Z,7.90
2017-09-15T22:01:23.618Z,7.90
2017-09-15T22:03:56.864Z,7.80
2017-09-15T22:06:24.400Z,7.80
2017-09-15T22:08:51.916Z,7.80
2017-09-15T22:11:19.867Z,7.80
2017-09-15T22:13:47.391Z,7.80
2017-09-15T22:16:14.975Z,7.80
2017-09-15T22:18:42.543Z,7.70
2017-09-15T22:21:10.053Z,7.70
2017-09-15T22:23:38.005Z,7.70
2017-09-15T22:26:05.902Z,7.70
2017-09-15T22:28:33.424Z,7.70
2017-09-15T22:31:00.975Z,7.70
2017-09-15T22:33:28.521Z,7.60
2017-09-15T22:35:56.643Z,7.60
2017-09-15T22:38:24.582Z,7.60
2017-09-15T22:40:52.116Z,7.60
2017-09-15T22:43:19.627Z,7.60
2017-09-15T22:45:47.146Z,7.60
2017-09-15T22:48:14.666Z,7.60
2017-09-15T22:50:42.187Z,7.50
2017-09-15T22:53:09.708Z,7.50
2017-09-15T22:55:37.248Z,7.50
2017-09-15T22:58:04.754Z,7.40
2017-09-15T23:00:32.699Z,7.40
2017-09-15T23:03:00.599Z,7.40
2017-09-15T23:05:28.097Z,7.40
2017-09-15T23:07:56.011Z,7.40
2017-09-15T23:10:23.510Z,7.40
2017-09-15T23:12:51.035Z,7.30
2017-09-15T23:15:18.930Z,7.30
2017-09-15T23:17:46.450Z,7.30
2017-09-15T23:20:13.949Z,7.20
2017-09-15T23:22:41.473Z,7.20
2017-09-15T23:25:08.981Z,7.10
2017-09-15T23:27:36.482Z,7.10
2017-09-15T23:30:04.009Z,7.10
2017-09-15T23:32:31.502Z,7.10
2017-09-15T23:34:59.045Z,7.10
2017-09-15T23:37:26.541Z,7.10
2017-09-15T23:39:54.064Z,7.10
2017-09-15T23:42:21.561Z,7.10
2017-09-15T23:44:49.481Z,7.00
2017-09-15T23:47:16.974Z,7.10
2017-09-15T23:49:44.885Z,7.00
2017-09-15T23:52:12.394Z,7.00
2017-09-15T23:54:39.886Z,7.00
2017-09-15T23:57:07.406Z,7.00
2017-09-15T23:59:34.902Z,7.00
